Time,TemperatureF,DewpointF,PressureIn,WindDirection,WindDirectionDegrees,WindSpeedMPH,WindSpeedGustMPH,Humidity,HourlyPrecipIn,Conditions,Clouds,dailyrainin,SolarRadiationWatts/m^2,SoftwareType,DateUTC
2013-11-23 00:12:00,26.0,23.0,-100.00,North,10,1.0,2.0,89,-99.99,,,0.00,0.000000,,2013-11-23 08:12:00,
2013-11-23 00:21:00,26.0,23.0,-100.00,North,10,1.0,2.0,89,-99.99,,,0.00,0.000000,,2013-11-23 08:21:00,
2013-11-23 00:32:00,26.0,23.0,-100.00,North,10,1.0,2.0,89,-99.99,,,0.00,0.000000,,2013-11-23 08:32:00,
2013-11-23 00:42:00,26.0,23.0,-100.00,North,10,1.0,2.0,89,-99.99,,,0.00,0.000000,,2013-11-23 08:42:00,
2013-11-23 01:22:00,26.0,20.0,-100.00,WSW,248,3.0,4.0,76,-99.99,,,0.00,0.000000,,2013-11-23 09:22:00,
2013-11-23 01:33:00,26.0,20.0,-100.00,WSW,248,3.0,4.0,76,-99.99,,,0.00,0.000000,,2013-11-23 09:33:00,
2013-11-23 01:43:00,26.0,20.0,-100.00,WSW,248,3.0,4.0,76,-99.99,,,0.00,0.000000,,2013-11-23 09:43:00,
2013-11-23 02:23:00,27.0,17.0,-100.00,NW,318,4.0,7.0,64,-99.99,,,0.00,0.000000,,2013-11-23 10:23:00,
2013-11-23 02:33:00,27.0,17.0,-100.00,NW,318,4.0,7.0,64,-99.99,,,0.00,0.000000,,2013-11-23 10:33:00,
2013-11-23 02:42:00,27.0,17.0,-100.00,NW,318,4.0,7.0,64,-99.99,,,0.00,0.000000,,2013-11-23 10:42:00,
2013-11-23 03:22:00,23.0,16.0,-100.00,SSW,210,3.0,5.0,74,-99.99,,,0.00,0.000000,,2013-11-23 11:22:00,
2013-11-23 03:33:00,23.0,16.0,-100.00,SSW,210,3.0,5.0,74,-99.99,,,0.00,0.000000,,2013-11-23 11:33:00,
2013-11-23 03:42:00,23.0,16.0,-100.00,SSW,210,3.0,5.0,74,-99.99,,,0.00,0.000000,,2013-11-23 11:42:00,
2013-11-23 04:22:00,24.0,18.0,-100.00,West,275,2.0,4.0,75,-99.99,,,0.00,0.000000,,2013-11-23 12:22:00,
2013-11-23 04:32:00,24.0,18.0,-100.00,West,275,2.0,4.0,75,-99.99,,,0.00,0.000000,,2013-11-23 12:32:00,
2013-11-23 04:42:00,24.0,18.0,-100.00,West,275,2.0,4.0,75,-99.99,,,0.00,0.000000,,2013-11-23 12:42:00,
2013-11-23 05:22:00,25.0,16.0,-100.00,West,268,3.0,5.0,69,-99.99,,,0.00,0.000000,,2013-11-23 13:22:00,
2013-11-23 05:32:00,25.0,16.0,-100.00,West,268,3.0,5.0,69,-99.99,,,0.00,0.000000,,2013-11-23 13:32:00,
2013-11-23 05:42:00,25.0,16.0,-100.00,West,268,3.0,5.0,69,-99.99,,,0.00,0.000000,,2013-11-23 13:42:00,
2013-11-23 06:21:00,25.0,17.0,-100.00,NW,307,3.0,4.0,70,-99.99,,,0.00,0.000000,,2013-11-23 14:21:00,
2013-11-23 06:32:00,25.0,17.0,-100.00,NW,307,3.0,4.0,70,-99.99,,,0.00,0.000000,,2013-11-23 14:32:00,
2013-11-23 06:42:00,25.0,17.0,-100.00,NW,307,3.0,4.0,70,-99.99,,,0.00,0.000000,,2013-11-23 14:42:00,
2013-11-23 07:22:00,27.0,16.0,-100.00,NNW,341,1.0,3.0,64,-99.99,,,-99.99,0.000000,,2013-11-23 15:22:00,
2013-11-23 07:33:00,27.0,16.0,-100.00,NNW,341,1.0,3.0,64,-99.99,,,-99.99,0.000000,,2013-11-23 15:33:00,
2013-11-23 07:43:00,27.0,16.0,-100.00,NNW,341,1.0,3.0,64,-99.99,,,-99.99,0.000000,,2013-11-23 15:43:00,
2013-11-23 08:23:00,23.0,18.0,-100.00,WNW,286,1.0,3.0,78,-99.99,,,0.00,0.930000,,2013-11-23 16:23:00,
2013-11-23 08:33:00,23.0,18.0,-100.00,WNW,286,1.0,3.0,78,-99.99,,,0.00,0.930000,,2013-11-23 16:33:00,
2013-11-23 08:43:00,23.0,18.0,-100.00,WNW,286,1.0,3.0,78,-99.99,,,0.00,0.930000,,2013-11-23 16:43:00,
2013-11-23 09:22:00,26.0,20.0,-100.00,West,265,2.0,3.0,75,-99.99,,,0.00,117.500000,,2013-11-23 17:22:00,
2013-11-23 09:34:00,26.0,20.0,-100.00,West,265,2.0,3.0,75,-99.99,,,0.00,117.500000,,2013-11-23 17:34:00,
2013-11-23 10:22:00,33.0,21.0,-100.00,West,277,2.0,3.0,60,-99.99,,,-99.99,279.040009,,2013-11-23 18:22:00,
2013-11-23 10:32:00,33.0,21.0,-100.00,West,277,2.0,3.0,60,-99.99,,,-99.99,279.040009,,2013-11-23 18:32:00,
2013-11-23 10:42:00,33.0,21.0,-100.00,West,277,2.0,3.0,60,-99.99,,,-99.99,279.040009,,2013-11-23 18:42:00,
2013-11-23 11:00:00,37.0,18.0,-100.00,SSW,200,3.0,5.0,45,-99.99,,,0.00,438.500000,,2013-11-23 19:00:00,
2013-11-23 11:42:00,37.0,18.0,-100.00,SSW,200,3.0,5.0,45,-99.99,,,0.00,438.500000,,2013-11-23 19:42:00,
2013-11-23 11:52:00,37.0,18.0,-100.00,SSW,200,3.0,5.0,45,-99.99,,,0.00,438.500000,,2013-11-23 19:52:00,
2013-11-23 12:21:00,39.0,17.0,-100.00,SW,218,2.0,4.0,39,-99.99,,,0.00,501.489990,,2013-11-23 20:21:00,
2013-11-23 12:32:00,39.0,17.0,-100.00,SW,218,2.0,4.0,39,-99.99,,,0.00,501.489990,,2013-11-23 20:32:00,
2013-11-23 12:42:00,39.0,17.0,-100.00,SW,218,2.0,4.0,39,-99.99,,,0.00,501.489990,,2013-11-23 20:42:00,
2013-11-23 13:21:00,41.0,19.0,-100.00,NNE,23,4.0,9.0,40,-99.99,,,0.00,536.119995,,2013-11-23 21:21:00,
2013-11-23 13:33:00,41.0,19.0,-100.00,NNE,23,4.0,9.0,40,-99.99,,,0.00,536.119995,,2013-11-23 21:33:00,
2013-11-23 13:42:00,41.0,19.0,-100.00,NNE,23,4.0,9.0,40,-99.99,,,0.00,536.119995,,2013-11-23 21:42:00,
2013-11-23 14:23:00,43.0,22.0,-100.00,North,5,6.0,10.0,42,-99.99,,,0.00,513.340027,,2013-11-23 22:23:00,
2013-11-23 14:33:00,43.0,22.0,-100.00,North,5,6.0,10.0,42,-99.99,,,0.00,513.340027,,2013-11-23 22:33:00,
2013-11-23 14:43:00,43.0,22.0,-100.00,North,5,6.0,10.0,42,-99.99,,,0.00,513.340027,,2013-11-23 22:43:00,
2013-11-23 15:21:00,44.0,20.0,-100.00,North,10,6.0,9.0,37,-99.99,,,0.00,429.079987,,2013-11-23 23:21:00,
2013-11-23 15:33:00,44.0,20.0,-100.00,North,10,6.0,9.0,37,-99.99,,,0.00,429.079987,,2013-11-23 23:33:00,
2013-11-23 15:42:00,44.0,20.0,-100.00,North,10,6.0,9.0,37,-99.99,,,0.00,429.079987,,2013-11-23 23:42:00,
2013-11-23 16:21:00,45.0,19.0,-100.00,NNE,13,4.0,6.0,35,-99.99,,,-99.99,299.850006,,2013-11-24 00:21:00,
2013-11-23 16:31:00,45.0,19.0,-100.00,NNE,13,4.0,6.0,35,-99.99,,,-99.99,299.850006,,2013-11-24 00:31:00,
2013-11-23 16:42:00,45.0,19.0,-100.00,NNE,13,4.0,6.0,35,-99.99,,,-99.99,299.850006,,2013-11-24 00:42:00,
2013-11-23 17:22:00,46.0,20.0,-100.00,NE,52,2.0,4.0,34,-99.99,,,0.00,158.520004,,2013-11-24 01:22:00,
2013-11-23 17:32:00,46.0,20.0,-100.00,NE,52,2.0,4.0,34,-99.99,,,0.00,158.520004,,2013-11-24 01:32:00,
2013-11-23 17:42:00,46.0,20.0,-100.00,NE,52,2.0,4.0,34,-99.99,,,0.00,158.520004,,2013-11-24 01:42:00,
2013-11-23 18:22:00,41.0,20.0,-100.00,ENE,59,1.0,2.0,42,-99.99,,,0.00,4.070000,,2013-11-24 02:22:00,
2013-11-23 18:32:00,41.0,20.0,-100.00,ENE,59,1.0,2.0,42,-99.99,,,0.00,4.070000,,2013-11-24 02:32:00,
2013-11-23 18:42:00,41.0,20.0,-100.00,ENE,59,1.0,2.0,42,-99.99,,,0.00,4.070000,,2013-11-24 02:42:00,
2013-11-23 19:22:00,35.0,23.0,-100.00,SSE,168,1.0,4.0,60,-99.99,,,0.00,0.000000,,2013-11-24 03:22:00,
2013-11-23 19:33:00,35.0,23.0,-100.00,SSE,168,1.0,4.0,60,-99.99,,,0.00,0.000000,,2013-11-24 03:33:00,
2013-11-23 19:43:00,35.0,23.0,-100.00,SSE,168,1.0,4.0,60,-99.99,,,0.00,0.000000,,2013-11-24 03:43:00,
2013-11-23 20:23:00,33.0,25.0,-100.00,SSE,149,1.0,2.0,73,-99.99,,,-99.99,0.000000,,2013-11-24 04:23:00,
2013-11-23 20:33:00,33.0,25.0,-100.00,SSE,149,1.0,2.0,73,-99.99,,,-99.99,0.000000,,2013-11-24 04:33:00,
2013-11-23 20:42:00,33.0,25.0,-100.00,SSE,149,1.0,2.0,73,-99.99,,,-99.99,0.000000,,2013-11-24 04:42:00,
2013-11-23 21:22:00,30.0,24.0,-100.00,NW,318,0.0,2.0,77,-99.99,,,0.00,0.000000,,2013-11-24 05:22:00,
2013-11-23 21:33:00,30.0,24.0,-100.00,NW,318,0.0,2.0,77,-99.99,,,0.00,0.000000,,2013-11-24 05:33:00,
2013-11-23 21:43:00,30.0,24.0,-100.00,NW,318,0.0,2.0,77,-99.99,,,0.00,0.000000,,2013-11-24 05:43:00,
2013-11-23 22:21:00,29.0,26.0,-100.00,SE,144,0.0,2.0,88,-99.99,,,0.00,0.000000,,2013-11-24 06:21:00,
2013-11-23 22:32:00,29.0,26.0,-100.00,SE,144,0.0,2.0,88,-99.99,,,0.00,0.000000,,2013-11-24 06:32:00,
2013-11-23 22:42:00,29.0,26.0,-100.00,SE,144,0.0,2.0,88,-99.99,,,0.00,0.000000,,2013-11-24 06:42:00,
2013-11-23 23:21:00,28.0,25.0,-100.00,WNW,301,1.0,3.0,89,-99.99,,,-99.99,0.000000,,2013-11-24 07:21:00,
2013-11-23 23:32:00,28.0,25.0,-100.00,WNW,301,1.0,3.0,89,-99.99,,,-99.99,0.000000,,2013-11-24 07:32:00,
2013-11-23 23:42:00,28.0,25.0,-100.00,WNW,301,1.0,3.0,89,-99.99,,,-99.99,0.000000,,2013-11-24 07:42:00,